createdAt,value
2023-01-05T00:01:40.645Z,10.60
2023-01-05T00:04:07.966Z,10.60
2023-01-05T00:06:35.191Z,10.60
2023-01-05T00:09:01.784Z,10.70
2023-01-05T00:11:47.401Z,10.60
2023-01-05T00:14:40.875Z,10.70
2023-01-05T00:17:29.263Z,10.70
2023-01-05T00:20:14.565Z,10.70
2023-01-05T00:22:46.560Z,10.70
2023-01-05T00:25:21.798Z,10.70
2023-01-05T00:27:51.416Z,10.70
2023-01-05T00:30:21.128Z,10.60
2023-01-05T00:32:48.048Z,10.60
2023-01-05T00:35:16.276Z,10.60
2023-01-05T00:37:43.671Z,10.50
2023-01-05T00:40:13.089Z,10.50
2023-01-05T00:42:39.867Z,10.50
2023-01-05T00:45:08.806Z,10.50
2023-01-05T00:47:35.385Z,10.50
2023-01-05T00:50:02.054Z,10.60
2023-01-05T00:52:28.640Z,10.70
2023-01-05T00:54:55.210Z,10.70
2023-01-05T00:57:21.805Z,10.60
2023-01-05T00:59:48.502Z,10.60
2023-01-05T01:02:15.291Z,10.70
2023-01-05T01:04:42.125Z,10.60
2023-01-05T01:07:08.768Z,10.60
2023-01-05T01:09:35.579Z,10.60
2023-01-05T01:12:02.204Z,10.60
2023-01-05T01:14:28.921Z,10.50
2023-01-05T01:16:55.635Z,10.60
2023-01-05T01:19:24.711Z,10.60
2023-01-05T01:21:51.474Z,10.60
2023-01-05T01:24:24.633Z,10.60
2023-01-05T01:26:51.527Z,10.70
2023-01-05T01:29:18.461Z,10.70
2023-01-05T01:31:49.274Z,10.70
2023-01-05T01:34:16.204Z,10.70
2023-01-05T01:36:43.346Z,10.60
2023-01-05T01:39:10.763Z,10.60
2023-01-05T01:41:37.504Z,10.70
2023-01-05T01:44:42.735Z,10.60
2023-01-05T01:47:21.983Z,10.60
2023-01-05T01:49:49.228Z,10.50
2023-01-05T01:52:15.947Z,10.40
2023-01-05T01:54:42.761Z,10.40
2023-01-05T01:57:13.000Z,10.40
2023-01-05T01:59:40.131Z,10.30
2023-01-05T02:02:08.700Z,10.30
2023-01-05T02:04:37.733Z,10.20
2023-01-05T02:07:07.660Z,10.20
2023-01-05T02:09:34.445Z,10.10
2023-01-05T02:12:27.230Z,10.20
2023-01-05T02:15:25.813Z,10.00
2023-01-05T02:18:08.764Z,10.00
2023-01-05T02:20:38.377Z,10.10
2023-01-05T02:23:42.911Z,10.20
2023-01-05T02:26:34.053Z,10.20
2023-01-05T02:29:03.688Z,10.20
2023-01-05T02:31:34.804Z,10.20
2023-01-05T02:34:28.574Z,10.20
2023-01-05T02:37:01.838Z,10.10
2023-01-05T02:39:40.958Z,10.00
2023-01-05T02:42:17.464Z,9.90
2023-01-05T02:44:45.004Z,9.80
2023-01-05T02:47:29.700Z,9.90
2023-01-05T02:50:04.425Z,9.80
2023-01-05T02:52:39.598Z,9.60
2023-01-05T02:55:09.977Z,9.60
2023-01-05T02:57:48.190Z,9.60
2023-01-05T03:00:18.767Z,9.60
2023-01-05T03:02:49.463Z,9.60
2023-01-05T03:05:44.322Z,9.60
2023-01-05T03:08:25.109Z,9.60
2023-01-05T03:11:24.040Z,9.70
2023-01-05T03:14:16.513Z,9.70
2023-01-05T03:16:45.667Z,9.80
2023-01-05T03:19:33.633Z,9.90
2023-01-05T03:22:23.053Z,9.90
2023-01-05T03:25:09.126Z,9.90
2023-01-05T03:27:55.109Z,10.00
2023-01-05T03:30:48.570Z,9.90
2023-01-05T03:33:44.159Z,10.00
2023-01-05T03:36:13.211Z,10.00
2023-01-05T03:38:45.568Z,10.00
2023-01-05T03:41:14.190Z,9.90
2023-01-05T03:43:42.473Z,9.80
2023-01-05T03:46:20.599Z,9.90
2023-01-05T03:48:47.913Z,9.80
2023-01-05T03:51:16.117Z,9.90
2023-01-05T03:53:43.441Z,9.80
2023-01-05T03:56:10.407Z,9.80
2023-01-05T03:58:37.399Z,9.80
2023-01-05T04:01:04.688Z,9.90
2023-01-05T04:03:32.318Z,9.90
2023-01-05T04:05:59.261Z,9.90
2023-01-05T04:08:25.855Z,9.90
2023-01-05T04:10:56.232Z,9.90
2023-01-05T04:13:22.991Z,9.90
2023-01-05T04:15:49.617Z,9.90
2023-01-05T04:18:16.281Z,9.90
2023-01-05T04:20:42.852Z,9.80
2023-01-05T04:23:09.432Z,9.80
2023-01-05T04:25:36.023Z,9.80
2023-01-05T04:28:03.476Z,9.70
2023-01-05T04:30:30.034Z,9.70
2023-01-05T04:32:56.662Z,9.60
2023-01-05T04:35:23.199Z,9.60
2023-01-05T04:37:49.757Z,9.60
2023-01-05T04:40:16.408Z,9.50
2023-01-05T04:42:42.964Z,9.50
2023-01-05T04:45:10.449Z,9.40
2023-01-05T04:47:37.089Z,9.40
2023-01-05T04:50:04.441Z,9.40
2023-01-05T04:52:31.046Z,9.40
2023-01-05T04:54:57.645Z,9.30
2023-01-05T04:57:24.260Z,9.30
2023-01-05T04:59:50.828Z,9.30
2023-01-05T05:02:17.504Z,9.30
2023-01-05T05:04:44.143Z,9.30
2023-01-05T05:07:10.785Z,9.30
2023-01-05T05:09:37.365Z,9.30
2023-01-05T05:12:04.049Z,9.30
2023-01-05T05:14:30.674Z,9.30
2023-01-05T05:16:57.245Z,9.30
2023-01-05T05:19:24.089Z,9.30
2023-01-05T05:21:50.706Z,9.30
2023-01-05T05:24:17.275Z,9.40
2023-01-05T05:26:43.918Z,9.40
2023-01-05T05:29:10.523Z,9.40
2023-01-05T05:31:37.260Z,9.40
2023-01-05T05:34:04.195Z,9.40
2023-01-05T05:36:31.977Z,9.40
2023-01-05T05:38:58.760Z,9.40
2023-01-05T05:41:25.623Z,9.40
2023-01-05T05:43:52.324Z,9.50
2023-01-05T05:46:18.988Z,9.40
2023-01-05T05:48:45.679Z,9.40
2023-01-05T05:51:12.251Z,9.30
2023-01-05T05:53:38.817Z,9.30
2023-01-05T05:56:05.625Z,9.30
2023-01-05T05:58:32.419Z,9.20
2023-01-05T06:01:01.837Z,9.30
2023-01-05T06:03:28.571Z,9.30
2023-01-05T06:05:55.266Z,9.30
2023-01-05T06:08:21.948Z,9.30
2023-01-05T06:10:50.876Z,9.30
2023-01-05T06:13:18.546Z,9.20
2023-01-05T06:15:45.128Z,9.20
2023-01-05T06:18:11.702Z,9.30
2023-01-05T06:20:38.352Z,9.30
2023-01-05T06:23:05.259Z,9.30
2023-01-05T06:25:31.979Z,9.30
2023-01-05T06:27:58.762Z,9.40
2023-01-05T06:30:25.752Z,9.40
2023-01-05T06:32:52.631Z,9.40
2023-01-05T06:35:19.223Z,9.40
2023-01-05T06:37:45.871Z,9.40
2023-01-05T06:40:13.442Z,9.50
2023-01-05T06:42:40.529Z,9.50
2023-01-05T06:45:09.550Z,9.50
2023-01-05T06:47:36.146Z,9.50
2023-01-05T06:50:02.828Z,9.50
2023-01-05T06:52:29.476Z,9.60
2023-01-05T06:54:56.045Z,9.50
2023-01-05T06:57:22.875Z,9.50
2023-01-05T06:59:49.554Z,9.50
2023-01-05T07:02:17.592Z,9.50
2023-01-05T07:04:44.317Z,9.50
2023-01-05T07:07:15.716Z,9.50
2023-01-05T07:09:42.828Z,9.60
2023-01-05T07:12:09.364Z,9.60
2023-01-05T07:14:36.214Z,9.60
2023-01-05T07:17:02.903Z,9.50
2023-01-05T07:19:29.619Z,9.50
2023-01-05T07:21:57.365Z,9.50
2023-01-05T07:24:24.416Z,9.50
2023-01-05T07:26:51.145Z,9.60
2023-01-05T07:29:17.849Z,9.60
2023-01-05T07:31:44.473Z,9.60
2023-01-05T07:34:11.326Z,9.60
2023-01-05T07:36:37.941Z,9.60
2023-01-05T07:39:04.651Z,9.60
2023-01-05T07:41:31.256Z,9.60
2023-01-05T07:43:57.847Z,9.60
2023-01-05T07:46:24.624Z,9.50
2023-01-05T07:48:51.281Z,9.60
2023-01-05T07:51:18.174Z,9.60
2023-01-05T07:53:45.000Z,9.60
2023-01-05T07:56:12.795Z,9.60
2023-01-05T07:58:39.618Z,9.60
2023-01-05T08:01:08.800Z,9.60
2023-01-05T08:03:35.881Z,9.60
2023-01-05T08:06:07.686Z,9.60
2023-01-05T08:08:34.600Z,9.60
2023-01-05T08:11:04.320Z,9.60
2023-01-05T08:13:49.541Z,9.50
2023-01-05T08:16:16.354Z,9.50
2023-01-05T08:18:43.001Z,9.60
2023-01-05T08:21:09.816Z,9.60
2023-01-05T08:23:37.657Z,9.60
2023-01-05T08:26:11.079Z,9.50
2023-01-05T08:28:38.380Z,9.50
2023-01-05T08:31:11.533Z,9.40
2023-01-05T08:33:38.149Z,9.40
2023-01-05T08:36:10.401Z,9.30
2023-01-05T08:38:37.426Z,9.30
2023-01-05T08:41:04.791Z,9.40
2023-01-05T08:43:31.513Z,9.50
2023-01-05T08:45:58.140Z,9.50
2023-01-05T08:48:24.911Z,9.60
2023-01-05T08:50:51.522Z,9.60
2023-01-05T08:53:18.206Z,9.60
2023-01-05T08:55:44.783Z,9.70
2023-01-05T08:58:12.240Z,9.70
2023-01-05T09:00:38.821Z,9.80
2023-01-05T09:03:06.380Z,9.80
2023-01-05T09:05:33.036Z,9.90
2023-01-05T09:07:59.645Z,9.90
2023-01-05T09:10:26.253Z,9.90
2023-01-05T09:12:52.844Z,9.90
2023-01-05T09:15:19.454Z,10.00
2023-01-05T09:17:46.064Z,10.00
2023-01-05T09:20:12.679Z,10.00
2023-01-05T09:22:39.330Z,10.00
2023-01-05T09:25:06.270Z,9.90
2023-01-05T09:27:32.920Z,9.90
2023-01-05T09:29:59.574Z,9.80
2023-01-05T09:32:26.298Z,9.80
2023-01-05T09:34:52.965Z,9.80
2023-01-05T09:37:19.831Z,9.80
2023-01-05T09:39:47.526Z,9.70
2023-01-05T09:42:21.704Z,9.70
2023-01-05T09:44:57.071Z,9.60
2023-01-05T09:47:39.778Z,9.60
2023-01-05T09:50:11.995Z,9.70
2023-01-05T09:52:39.423Z,9.70
2023-01-05T09:55:17.510Z,9.70
2023-01-05T09:58:07.674Z,9.80
2023-01-05T10:00:35.910Z,9.90
2023-01-05T10:03:13.056Z,10.00
2023-01-05T10:05:47.251Z,10.00
2023-01-05T10:08:33.824Z,10.00
2023-01-05T10:11:45.598Z,10.00
2023-01-05T10:14:23.107Z,10.10
2023-01-05T10:16:53.850Z,10.10
2023-01-05T10:19:30.042Z,10.20
2023-01-05T10:22:23.132Z,10.10
2023-01-05T10:25:10.011Z,10.10
2023-01-05T10:28:00.577Z,10.10
2023-01-05T10:30:36.987Z,10.10
2023-01-05T10:33:35.430Z,10.00
2023-01-05T10:39:55.735Z,10.00
2023-01-05T10:42:45.179Z,10.00
2023-01-05T10:45:15.228Z,10.00
2023-01-05T10:47:45.003Z,10.00
2023-01-05T10:50:42.527Z,10.00
2023-01-05T10:53:22.185Z,10.10
2023-01-05T10:55:59.098Z,10.10
2023-01-05T10:58:28.185Z,10.10
2023-01-05T11:00:58.755Z,10.20
2023-01-05T11:04:23.855Z,10.10
2023-01-05T11:06:34.807Z,10.20
2023-01-05T11:09:22.324Z,10.20
2023-01-05T11:11:57.996Z,10.20
2023-01-05T11:14:26.876Z,10.20
2023-01-05T11:17:00.243Z,10.30
2023-01-05T11:19:31.930Z,10.30
2023-01-05T11:22:02.174Z,10.30
2023-01-05T11:24:36.823Z,10.30
2023-01-05T11:27:23.310Z,10.20
2023-01-05T11:30:14.882Z,10.30
2023-01-05T11:32:45.774Z,10.50
2023-01-05T11:35:30.615Z,10.50
2023-01-05T11:37:58.119Z,10.50
2023-01-05T11:40:29.392Z,10.40
2023-01-05T11:42:56.195Z,10.40
2023-01-05T11:45:25.883Z,10.40
2023-01-05T11:47:56.811Z,10.30
2023-01-05T11:50:26.366Z,10.40
2023-01-05T11:52:55.044Z,10.30
2023-01-05T11:55:33.063Z,10.20
2023-01-05T11:58:22.515Z,10.20
2023-01-05T12:01:21.886Z,10.20
2023-01-05T12:03:58.656Z,10.20
2023-01-05T12:06:34.601Z,10.20
2023-01-05T12:09:06.137Z,10.10
2023-01-05T12:11:45.415Z,9.90
2023-01-05T12:14:21.804Z,9.80
2023-01-05T12:16:57.943Z,9.60
2023-01-05T12:19:33.615Z,9.50
2023-01-05T12:22:03.158Z,9.40
2023-01-05T12:24:51.051Z,9.30
2023-01-05T12:27:17.657Z,9.30
2023-01-05T12:36:39.150Z,9.30
2023-01-05T12:39:49.167Z,9.30
2023-01-05T12:42:37.616Z,9.30
2023-01-05T12:45:28.091Z,9.40
2023-01-05T12:48:10.331Z,9.60
2023-01-05T12:50:47.799Z,9.60
2023-01-05T12:53:55.762Z,9.70
2023-01-05T12:56:31.297Z,9.80
2023-01-05T12:59:18.384Z,9.80
2023-01-05T13:01:54.257Z,9.80
2023-01-05T13:04:47.015Z,9.90
2023-01-05T13:07:29.285Z,9.90
2023-01-05T13:10:38.965Z,10.00
2023-01-05T13:13:16.850Z,9.90
2023-01-05T13:16:10.920Z,9.90
2023-01-05T13:18:41.869Z,9.70
2023-01-05T13:21:14.858Z,9.60
2023-01-05T13:23:45.666Z,9.60
2023-01-05T13:26:18.258Z,9.50
2023-01-05T13:28:50.869Z,9.50
2023-01-05T13:31:42.932Z,9.40
2023-01-05T13:34:18.607Z,9.60
2023-01-05T13:37:03.599Z,9.60
2023-01-05T13:40:08.395Z,9.70
2023-01-05T13:42:47.231Z,9.60
2023-01-05T13:45:23.642Z,9.60
2023-01-05T13:51:01.835Z,9.30
2023-01-05T13:53:30.565Z,9.10
2023-01-05T13:56:04.324Z,9.00
2023-01-05T13:58:42.925Z,9.00
2023-01-05T14:01:15.925Z,9.00
2023-01-05T14:03:52.522Z,9.00
2023-01-05T14:06:24.008Z,8.90
2023-01-05T14:09:07.950Z,8.80
2023-01-05T14:11:36.412Z,8.70
2023-01-05T14:14:08.362Z,8.70
2023-01-05T14:16:35.367Z,8.70
2023-01-05T14:19:20.275Z,8.60
2023-01-05T14:21:50.011Z,8.50
2023-01-05T14:24:33.543Z,8.60
2023-01-05T14:27:04.876Z,8.50
2023-01-05T14:32:37.395Z,8.40
2023-01-05T14:35:24.784Z,8.40
2023-01-05T14:37:55.994Z,8.40
2023-01-05T14:40:38.868Z,8.30
2023-01-05T14:43:26.578Z,8.30
2023-01-05T14:46:01.736Z,8.30
2023-01-05T14:48:34.593Z,8.30
2023-01-05T14:51:20.851Z,8.30
2023-01-05T14:53:49.427Z,8.30
2023-01-05T14:56:20.207Z,8.30
2023-01-05T14:59:09.878Z,8.30
2023-01-05T15:02:03.821Z,8.30
2023-01-05T15:04:37.181Z,8.30
2023-01-05T15:07:18.509Z,8.30
2023-01-05T15:12:57.158Z,8.30
2023-01-05T15:15:29.894Z,8.30
2023-01-05T15:18:25.460Z,8.30
2023-01-05T15:21:12.054Z,8.30
2023-01-05T15:24:02.866Z,8.30
2023-01-05T15:27:07.189Z,8.30
2023-01-05T15:29:36.786Z,8.30
2023-01-05T15:32:15.518Z,8.30
2023-01-05T15:34:47.173Z,8.30
2023-01-05T15:37:31.537Z,8.30
2023-01-05T15:40:03.845Z,8.30
2023-01-05T15:42:33.578Z,8.40
2023-01-05T15:45:00.545Z,8.40
2023-01-05T15:47:29.557Z,8.40
2023-01-05T15:49:59.047Z,8.40
2023-01-05T15:52:35.040Z,8.40
2023-01-05T15:55:14.053Z,8.40
2023-01-05T15:57:41.284Z,8.40
2023-01-05T16:00:33.129Z,8.40
2023-01-05T16:02:59.977Z,8.40
2023-01-05T16:05:29.450Z,8.40
2023-01-05T16:08:00.269Z,8.40
2023-01-05T16:10:49.891Z,8.40
2023-01-05T16:13:19.120Z,8.40
2023-01-05T16:15:51.598Z,8.50
2023-01-05T16:18:27.183Z,8.40
2023-01-05T16:20:56.153Z,8.50
2023-01-05T16:23:42.452Z,8.50
2023-01-05T16:26:17.231Z,8.50
2023-01-05T16:28:45.207Z,8.50
2023-01-05T16:31:25.215Z,8.50
2023-01-05T16:34:12.124Z,8.50
2023-01-05T16:36:38.689Z,8.40
2023-01-05T16:39:22.489Z,8.50
2023-01-05T16:42:07.815Z,8.50
2023-01-05T16:44:36.415Z,8.50
2023-01-05T16:47:06.323Z,8.50
2023-01-05T16:49:43.467Z,8.50
2023-01-05T16:52:23.809Z,8.50
2023-01-05T16:55:27.858Z,8.40
2023-01-05T16:57:56.065Z,8.40
2023-01-05T17:00:25.684Z,8.40
2023-01-05T17:02:54.078Z,8.50
2023-01-05T17:05:26.639Z,8.50
2023-01-05T17:08:22.643Z,8.50
2023-01-05T17:10:50.023Z,8.50
2023-01-05T17:13:21.123Z,8.50
2023-01-05T17:15:50.441Z,8.50
2023-01-05T17:18:25.071Z,8.60
2023-01-05T17:20:53.371Z,8.60
2023-01-05T17:23:29.631Z,8.60
2023-01-05T17:26:12.864Z,8.60
2023-01-05T17:28:42.022Z,8.60
2023-01-05T17:31:09.781Z,8.60
2023-01-05T17:33:36.355Z,8.60
2023-01-05T17:36:03.882Z,8.60
2023-01-05T17:38:30.740Z,8.60
2023-01-05T17:40:58.491Z,8.60
2023-01-05T17:43:25.506Z,8.70
2023-01-05T17:45:52.601Z,8.70
2023-01-05T17:48:19.290Z,8.70
2023-01-05T17:50:45.853Z,8.80
2023-01-05T17:53:12.425Z,8.70
2023-01-05T17:55:39.427Z,8.70
2023-01-05T17:58:06.065Z,8.70
2023-01-05T18:00:39.440Z,8.60
2023-01-05T18:03:06.074Z,8.70
2023-01-05T18:05:32.663Z,8.70
2023-01-05T18:07:59.267Z,8.60
2023-01-05T18:10:28.104Z,8.70
2023-01-05T18:12:56.524Z,8.70
2023-01-05T18:15:23.107Z,8.60
2023-01-05T18:17:49.703Z,8.60
2023-01-05T18:20:17.707Z,8.60
2023-01-05T18:22:46.677Z,8.60
2023-01-05T18:25:13.503Z,8.60
2023-01-05T18:27:40.238Z,8.60
2023-01-05T18:30:08.055Z,8.60
2023-01-05T18:32:34.825Z,8.70
2023-01-05T18:35:04.415Z,8.70
2023-01-05T18:37:34.479Z,8.70
2023-01-05T18:40:01.278Z,8.70
2023-01-05T18:42:28.873Z,8.80
2023-01-05T18:44:55.502Z,8.80
2023-01-05T18:47:22.094Z,8.80
2023-01-05T18:49:48.667Z,8.80
2023-01-05T18:52:15.333Z,8.90
2023-01-05T18:54:42.169Z,8.90
2023-01-05T18:57:08.801Z,8.90
2023-01-05T18:59:35.914Z,8.90
2023-01-05T19:02:02.661Z,8.90
2023-01-05T19:04:29.456Z,8.90
2023-01-05T19:06:56.788Z,9.00
2023-01-05T19:09:23.425Z,9.00
2023-01-05T19:11:50.020Z,9.00
2023-01-05T19:14:17.912Z,9.00
2023-01-05T19:16:44.580Z,9.00
2023-01-05T19:19:12.772Z,9.00
2023-01-05T19:21:41.397Z,9.00
2023-01-05T19:24:19.176Z,9.10
2023-01-05T19:26:46.927Z,9.10
2023-01-05T19:29:14.268Z,9.10
2023-01-05T19:31:41.624Z,9.10
2023-01-05T19:34:09.131Z,9.10
2023-01-05T19:36:36.285Z,9.10
2023-01-05T19:39:08.559Z,9.10
2023-01-05T19:41:36.579Z,9.10
2023-01-05T19:44:03.536Z,9.10
2023-01-05T19:46:30.439Z,9.10
2023-01-05T19:48:59.105Z,9.10
2023-01-05T19:51:28.506Z,9.10
2023-01-05T19:53:59.654Z,9.10
2023-01-05T19:56:29.873Z,9.10
2023-01-05T19:58:59.953Z,9.10
2023-01-05T20:01:28.895Z,9.10
2023-01-05T20:03:56.839Z,9.00
2023-01-05T20:06:26.358Z,9.00
2023-01-05T20:08:54.683Z,9.00
2023-01-05T20:11:43.554Z,9.00
2023-01-05T20:14:14.753Z,9.00
2023-01-05T20:16:43.267Z,9.00
2023-01-05T20:19:10.758Z,8.90
2023-01-05T20:21:37.900Z,8.80
2023-01-05T20:24:08.185Z,8.80
2023-01-05T20:26:34.860Z,8.80
2023-01-05T20:29:01.625Z,8.70
2023-01-05T20:31:37.856Z,8.70
2023-01-05T20:34:09.534Z,8.60
2023-01-05T20:36:36.119Z,8.60
2023-01-05T20:39:05.976Z,8.60
2023-01-05T20:41:36.874Z,8.50
2023-01-05T20:44:03.882Z,8.60
2023-01-05T20:46:33.333Z,8.50
2023-01-05T20:49:00.539Z,8.50
2023-01-05T20:51:27.483Z,8.50
2023-01-05T20:53:55.601Z,8.50
2023-01-05T20:56:25.164Z,8.40
2023-01-05T20:58:53.471Z,8.40
2023-01-05T21:01:20.720Z,8.40
2023-01-05T21:03:48.659Z,8.40
2023-01-05T21:06:17.342Z,8.50
2023-01-05T21:08:48.645Z,8.50
2023-01-05T21:11:17.959Z,8.60
2023-01-05T21:13:46.419Z,8.70
2023-01-05T21:16:19.779Z,8.70
2023-01-05T21:18:47.034Z,8.80
2023-01-05T21:21:18.853Z,8.80
2023-01-05T21:23:47.579Z,8.80
2023-01-05T21:26:15.813Z,8.90
2023-01-05T21:28:43.853Z,8.90
2023-01-05T21:31:13.904Z,8.90
2023-01-05T21:33:40.953Z,9.00
2023-01-05T21:36:10.390Z,9.00
2023-01-05T21:39:00.812Z,9.00
2023-01-05T21:41:42.654Z,9.10
2023-01-05T21:44:11.314Z,9.10
2023-01-05T21:46:39.010Z,9.10
2023-01-05T21:49:07.244Z,9.10
2023-01-05T21:51:52.732Z,9.20
2023-01-05T21:54:38.603Z,9.10
2023-01-05T21:57:05.594Z,9.10
2023-01-05T21:59:32.184Z,9.20
2023-01-05T22:01:58.850Z,9.20
2023-01-05T22:04:25.421Z,9.20
2023-01-05T22:06:52.186Z,9.20
2023-01-05T22:09:19.107Z,9.20
2023-01-05T22:11:45.725Z,9.20
2023-01-05T22:14:12.402Z,9.20
2023-01-05T22:16:39.089Z,9.20
2023-01-05T22:19:05.724Z,9.20
2023-01-05T22:21:32.374Z,9.20
2023-01-05T22:23:59.100Z,9.20
2023-01-05T22:26:25.742Z,9.20
2023-01-05T22:28:52.792Z,9.30
2023-01-05T22:31:25.477Z,9.30
2023-01-05T22:33:54.354Z,9.20
2023-01-05T22:36:22.319Z,9.30
2023-01-05T22:38:50.179Z,9.30
2023-01-05T22:41:20.493Z,9.30
2023-01-05T22:43:48.079Z,9.30
2023-01-05T22:46:18.937Z,9.30
2023-01-05T22:48:46.975Z,9.40
2023-01-05T22:51:22.678Z,9.40
2023-01-05T22:53:49.870Z,9.40
2023-01-05T22:56:18.365Z,9.40
2023-01-05T22:58:45.278Z,9.40
2023-01-05T23:01:27.522Z,9.40
2023-01-05T23:03:55.489Z,9.40
2023-01-05T23:06:23.274Z,9.40
2023-01-05T23:08:51.206Z,9.40
2023-01-05T23:11:24.565Z,9.40
2023-01-05T23:13:52.632Z,9.40
2023-01-05T23:16:19.828Z,9.40
2023-01-05T23:18:48.695Z,9.40
2023-01-05T23:21:16.925Z,9.30
2023-01-05T23:23:44.103Z,9.40
2023-01-05T23:26:13.893Z,9.30
2023-01-05T23:28:40.734Z,9.30
2023-01-05T23:31:07.690Z,9.30
2023-01-05T23:33:35.922Z,9.30
2023-01-05T23:36:03.947Z,9.30
2023-01-05T23:38:30.732Z,9.30
2023-01-05T23:40:58.805Z,9.30
2023-01-05T23:43:27.247Z,9.40
2023-01-05T23:46:01.293Z,9.50
2023-01-05T23:48:28.777Z,9.50
2023-01-05T23:50:56.365Z,9.50
2023-01-05T23:53:23.672Z,9.50
2023-01-05T23:55:50.915Z,9.50
2023-01-05T23:58:17.794Z,9.60
